createdAt,value
2023-05-10T00:02:14.957Z,98.29
2023-05-10T00:04:42.086Z,98.87
2023-05-10T00:07:09.200Z,98.87
2023-05-10T00:09:39.721Z,99.14
2023-05-10T00:12:07.068Z,99.29
2023-05-10T00:14:34.198Z,99.26
2023-05-10T00:17:01.354Z,99.19
2023-05-10T00:19:28.647Z,99.11
2023-05-10T00:21:55.725Z,99.97
2023-05-10T00:24:22.766Z,99.71
2023-05-10T00:26:49.833Z,99.73
2023-05-10T00:29:16.863Z,100.00
2023-05-10T00:31:43.968Z,100.00
2023-05-10T00:34:11.069Z,100.00
2023-05-10T00:36:38.131Z,99.54
2023-05-10T00:39:05.209Z,100.00
2023-05-10T00:41:37.467Z,100.00
2023-05-10T00:44:05.514Z,99.93
2023-05-10T00:46:35.594Z,99.57
2023-05-10T00:49:02.971Z,100.00
2023-05-10T00:51:32.631Z,100.00
2023-05-10T00:53:59.970Z,100.00
2023-05-10T00:56:27.711Z,100.00
2023-05-10T00:58:54.842Z,100.00
2023-05-10T01:01:21.916Z,100.00
2023-05-10T01:03:49.666Z,99.95
2023-05-10T01:06:16.711Z,100.00
2023-05-10T01:08:44.217Z,99.90
2023-05-10T01:11:11.883Z,100.00
2023-05-10T01:13:43.606Z,100.00
2023-05-10T01:16:10.638Z,100.00
2023-05-10T01:18:41.897Z,100.00
2023-05-10T01:21:23.986Z,100.00
2023-05-10T01:24:11.124Z,100.00
2023-05-10T01:26:50.935Z,100.00
2023-05-10T01:29:27.541Z,100.00
2023-05-10T01:32:14.125Z,100.00
2023-05-10T01:34:54.612Z,100.00
2023-05-10T01:37:32.523Z,100.00
2023-05-10T01:40:03.911Z,100.00
2023-05-10T01:42:41.783Z,100.00
2023-05-10T01:45:16.193Z,100.00
2023-05-10T01:47:46.200Z,100.00
2023-05-10T01:50:30.119Z,100.00
2023-05-10T01:53:00.678Z,100.00
2023-05-10T01:55:32.306Z,100.00
2023-05-10T01:58:13.335Z,100.00
2023-05-10T02:00:43.964Z,100.00
2023-05-10T02:03:12.865Z,100.00
2023-05-10T02:05:42.634Z,100.00
2023-05-10T02:08:10.622Z,100.00
2023-05-10T02:10:38.517Z,100.00
2023-05-10T02:13:08.523Z,100.00
2023-05-10T02:15:36.420Z,100.00
2023-05-10T02:18:05.263Z,100.00
2023-05-10T02:20:33.706Z,100.00
2023-05-10T02:23:02.186Z,100.00
2023-05-10T02:25:35.974Z,100.00
2023-05-10T02:28:06.366Z,100.00
2023-05-10T02:30:36.130Z,100.00
2023-05-10T02:33:05.684Z,100.00
2023-05-10T02:35:34.863Z,100.00
2023-05-10T02:38:03.114Z,100.00
2023-05-10T02:40:31.051Z,100.00
2023-05-10T02:43:00.014Z,100.00
2023-05-10T02:45:34.520Z,100.00
2023-05-10T02:48:01.895Z,100.00
2023-05-10T02:50:31.359Z,100.00
2023-05-10T02:53:04.379Z,100.00
2023-05-10T02:55:36.894Z,100.00
2023-05-10T02:58:05.168Z,99.95
2023-05-10T03:00:32.391Z,99.67
2023-05-10T03:02:59.776Z,99.89
2023-05-10T03:05:27.102Z,99.78
2023-05-10T03:07:55.619Z,99.77
2023-05-10T03:10:29.179Z,99.70
2023-05-10T03:13:15.213Z,99.49
2023-05-10T03:15:59.746Z,99.13
2023-05-10T03:18:34.524Z,99.25
2023-05-10T03:21:07.531Z,99.69
2023-05-10T03:23:41.186Z,99.85
2023-05-10T03:26:09.405Z,99.97
2023-05-10T03:28:36.943Z,99.87
2023-05-10T03:31:06.525Z,100.00
2023-05-10T03:33:38.596Z,100.00
2023-05-10T03:36:06.077Z,99.82
2023-05-10T03:38:33.161Z,99.27
2023-05-10T03:41:00.061Z,99.30
2023-05-10T03:43:27.253Z,99.14
2023-05-10T03:45:54.292Z,99.11
2023-05-10T03:48:21.285Z,99.26
2023-05-10T03:50:48.379Z,98.89
2023-05-10T03:53:15.561Z,98.95
2023-05-10T03:55:42.665Z,98.83
2023-05-10T03:58:13.096Z,99.06
2023-05-10T04:00:44.982Z,98.89
2023-05-10T04:03:12.956Z,99.01
2023-05-10T04:05:41.484Z,99.18
2023-05-10T04:08:11.146Z,99.14
2023-05-10T04:10:38.141Z,99.15
2023-05-10T04:13:05.342Z,99.03
2023-05-10T04:15:32.321Z,98.99
2023-05-10T04:17:59.417Z,98.49
2023-05-10T04:20:26.764Z,98.49
2023-05-10T04:22:54.054Z,98.18
2023-05-10T04:25:21.086Z,98.53
2023-05-10T04:27:48.201Z,98.72
2023-05-10T04:30:16.092Z,98.78
2023-05-10T04:32:46.444Z,98.79
2023-05-10T04:35:13.618Z,99.43
2023-05-10T04:37:40.665Z,99.10
2023-05-10T04:40:08.829Z,98.48
2023-05-10T04:42:36.058Z,98.98
2023-05-10T04:45:03.082Z,98.76
2023-05-10T04:47:32.353Z,98.28
2023-05-10T04:49:59.828Z,99.02
2023-05-10T04:52:27.574Z,98.50
2023-05-10T04:54:54.877Z,98.30
2023-05-10T04:57:21.932Z,98.26
2023-05-10T04:59:50.391Z,98.15
2023-05-10T05:02:17.795Z,97.84
2023-05-10T05:04:44.818Z,97.75
2023-05-10T05:07:12.065Z,97.02
2023-05-10T05:09:40.082Z,96.42
2023-05-10T05:12:07.221Z,96.64
2023-05-10T05:14:34.269Z,97.02
2023-05-10T05:17:01.417Z,96.98
2023-05-10T05:19:29.826Z,97.00
2023-05-10T05:21:56.991Z,97.35
2023-05-10T05:24:24.431Z,97.94
2023-05-10T05:26:51.410Z,97.67
2023-05-10T05:29:18.618Z,97.87
2023-05-10T05:31:45.826Z,97.47
2023-05-10T05:34:13.272Z,97.55
2023-05-10T05:36:40.353Z,97.09
2023-05-10T05:39:07.336Z,97.16
2023-05-10T05:41:39.892Z,97.87
2023-05-10T05:44:07.056Z,98.42
2023-05-10T05:46:34.116Z,97.42
2023-05-10T05:49:01.083Z,96.52
2023-05-10T05:51:28.213Z,97.02
2023-05-10T05:53:55.401Z,96.03
2023-05-10T05:56:25.782Z,95.72
2023-05-10T05:58:52.924Z,95.58
2023-05-10T06:01:20.370Z,95.61
2023-05-10T06:03:47.504Z,95.66
2023-05-10T06:06:14.811Z,95.89
2023-05-10T06:08:41.973Z,95.71
2023-05-10T06:11:09.042Z,95.89
2023-05-10T06:13:39.921Z,96.05
2023-05-10T06:16:07.620Z,95.90
2023-05-10T06:18:35.829Z,95.96
2023-05-10T06:21:03.264Z,94.99
2023-05-10T06:23:31.903Z,94.95
2023-05-10T06:25:58.947Z,94.35
2023-05-10T06:28:26.121Z,94.00
2023-05-10T06:30:53.168Z,93.01
2023-05-10T06:33:20.381Z,92.26
2023-05-10T06:35:47.533Z,91.74
2023-05-10T06:38:14.642Z,90.74
2023-05-10T06:40:43.708Z,89.07
2023-05-10T06:43:11.391Z,87.93
2023-05-10T06:45:39.640Z,87.55
2023-05-10T06:48:06.816Z,87.52
2023-05-10T06:50:36.965Z,87.39
2023-05-10T06:53:04.380Z,86.22
2023-05-10T06:55:32.860Z,84.69
2023-05-10T06:57:59.999Z,85.50
2023-05-10T07:00:27.412Z,87.11
2023-05-10T07:02:54.639Z,87.40
2023-05-10T07:05:22.303Z,86.10
2023-05-10T07:07:49.631Z,86.38
2023-05-10T07:10:16.747Z,86.34
2023-05-10T07:12:43.819Z,85.63
2023-05-10T07:15:11.031Z,85.67
2023-05-10T07:17:41.757Z,85.62
2023-05-10T07:20:10.844Z,84.62
2023-05-10T07:22:38.022Z,85.03
2023-05-10T07:25:05.515Z,84.38
2023-05-10T07:27:32.473Z,84.15
2023-05-10T07:30:00.089Z,85.15
2023-05-10T07:32:27.909Z,85.50
2023-05-10T07:34:55.102Z,84.97
2023-05-10T07:37:22.180Z,84.10
2023-05-10T07:39:49.429Z,82.50
2023-05-10T07:42:16.547Z,77.64
2023-05-10T07:44:43.760Z,73.58
2023-05-10T07:47:11.227Z,71.63
2023-05-10T07:49:40.369Z,73.27
2023-05-10T07:52:07.407Z,72.88
2023-05-10T07:54:35.308Z,71.85
2023-05-10T07:57:02.607Z,70.13
2023-05-10T07:59:32.367Z,69.60
2023-05-10T08:01:59.438Z,66.42
2023-05-10T08:04:26.597Z,66.51
2023-05-10T08:06:53.746Z,66.48
2023-05-10T08:09:25.493Z,65.23
2023-05-10T08:11:52.819Z,63.03
2023-05-10T08:14:20.062Z,63.15
2023-05-10T08:16:47.227Z,64.02
2023-05-10T08:19:20.389Z,64.47
2023-05-10T08:21:47.488Z,66.51
2023-05-10T08:24:14.859Z,67.60
2023-05-10T08:26:41.997Z,69.85
2023-05-10T08:29:09.326Z,69.50
2023-05-10T08:31:36.744Z,70.00
2023-05-10T08:34:03.812Z,70.43
2023-05-10T08:36:31.331Z,71.69
2023-05-10T08:38:58.348Z,72.54
2023-05-10T08:41:30.159Z,71.42
2023-05-10T08:43:57.343Z,71.79
2023-05-10T08:46:24.917Z,72.74
2023-05-10T08:48:53.447Z,73.82
2023-05-10T08:51:25.108Z,73.97
2023-05-10T08:53:52.720Z,74.85
2023-05-10T08:56:21.029Z,75.46
2023-05-10T08:58:50.300Z,74.63
2023-05-10T09:01:18.376Z,75.15
2023-05-10T09:03:48.851Z,73.10
2023-05-10T09:06:17.029Z,70.90
2023-05-10T09:08:45.840Z,70.39
2023-05-10T09:11:14.021Z,64.37
2023-05-10T09:13:41.322Z,62.77
2023-05-10T09:16:20.585Z,63.10
2023-05-10T09:18:50.939Z,62.73
2023-05-10T09:21:18.132Z,64.43
2023-05-10T09:23:48.729Z,66.31
2023-05-10T09:26:16.224Z,67.28
2023-05-10T09:28:54.788Z,67.39
2023-05-10T09:31:22.190Z,68.63
2023-05-10T09:33:51.103Z,69.69
2023-05-10T09:36:18.484Z,69.81
2023-05-10T09:38:49.495Z,69.15
2023-05-10T09:41:22.865Z,70.40
2023-05-10T09:43:51.244Z,69.56
2023-05-10T09:46:18.527Z,69.10
2023-05-10T09:48:48.986Z,67.86
2023-05-10T09:51:24.618Z,68.24
2023-05-10T09:54:11.746Z,70.39
2023-05-10T09:56:41.765Z,68.20
2023-05-10T09:59:12.352Z,68.17
2023-05-10T10:01:40.676Z,68.56
2023-05-10T10:04:10.017Z,68.97
2023-05-10T10:06:39.070Z,68.47
2023-05-10T10:09:10.642Z,68.37
2023-05-10T10:11:39.623Z,68.29
2023-05-10T10:14:07.273Z,66.96
2023-05-10T10:16:34.805Z,64.62
2023-05-10T10:19:02.280Z,64.80
2023-05-10T10:21:33.031Z,64.65
2023-05-10T10:24:00.189Z,65.54
2023-05-10T10:26:27.731Z,64.70
2023-05-10T10:29:07.104Z,65.83
2023-05-10T10:31:47.585Z,63.36
2023-05-10T10:34:30.940Z,63.85
2023-05-10T10:36:59.738Z,62.71
2023-05-10T10:39:28.340Z,63.57
2023-05-10T10:41:57.505Z,62.70
2023-05-10T10:44:25.823Z,63.22
2023-05-10T10:47:07.379Z,59.63
2023-05-10T10:49:43.107Z,59.97
2023-05-10T10:52:30.604Z,60.78
2023-05-10T10:54:59.402Z,62.03
2023-05-10T10:57:28.044Z,62.23
2023-05-10T11:00:24.066Z,62.81
2023-05-10T11:02:51.585Z,61.67
2023-05-10T11:05:39.709Z,63.59
2023-05-10T11:08:11.664Z,60.11
2023-05-10T11:10:39.418Z,59.32
2023-05-10T11:13:09.843Z,59.56
2023-05-10T11:15:39.546Z,56.97
2023-05-10T11:18:25.986Z,57.75
2023-05-10T11:20:56.880Z,57.02
2023-05-10T11:23:24.106Z,57.68
2023-05-10T11:25:51.559Z,56.80
2023-05-10T11:28:20.970Z,57.29
2023-05-10T11:30:48.534Z,58.60
2023-05-10T11:33:18.997Z,57.80
2023-05-10T11:35:46.522Z,58.63
2023-05-10T11:38:15.144Z,57.96
2023-05-10T11:40:42.684Z,58.34
2023-05-10T11:43:11.623Z,58.22
2023-05-10T11:45:42.592Z,55.76
2023-05-10T11:48:09.906Z,57.16
2023-05-10T11:50:37.152Z,59.19
2023-05-10T11:53:04.218Z,59.06
2023-05-10T11:55:35.225Z,58.37
2023-05-10T11:58:04.641Z,57.29
2023-05-10T12:00:33.126Z,57.70
2023-05-10T12:03:02.212Z,59.15
2023-05-10T12:05:37.798Z,56.56
2023-05-10T12:08:13.785Z,55.85
2023-05-10T12:10:41.230Z,56.73
2023-05-10T12:13:15.409Z,57.69
2023-05-10T12:15:43.519Z,58.85
2023-05-10T12:18:11.976Z,58.52
2023-05-10T12:20:40.071Z,58.71
2023-05-10T12:23:09.599Z,60.06
2023-05-10T12:25:40.719Z,59.71
2023-05-10T12:28:10.509Z,58.42
2023-05-10T12:30:38.559Z,57.02
2023-05-10T12:33:11.476Z,57.64
2023-05-10T12:35:49.484Z,60.46
2023-05-10T12:38:36.250Z,61.71
2023-05-10T12:41:05.476Z,61.46
2023-05-10T12:43:33.733Z,60.21
2023-05-10T12:46:06.749Z,62.16
2023-05-10T12:48:35.307Z,61.23
2023-05-10T12:51:03.469Z,60.36
2023-05-10T12:53:35.721Z,58.68
2023-05-10T12:56:02.920Z,57.35
2023-05-10T12:58:35.497Z,57.49
2023-05-10T13:01:03.503Z,56.96
2023-05-10T13:03:32.645Z,56.72
2023-05-10T13:05:59.758Z,57.46
2023-05-10T13:08:26.872Z,57.11
2023-05-10T13:10:54.483Z,57.19
2023-05-10T13:13:21.543Z,57.87
2023-05-10T13:15:48.611Z,58.93
2023-05-10T13:18:15.703Z,59.62
2023-05-10T13:20:44.445Z,58.96
2023-05-10T13:23:11.973Z,59.42
2023-05-10T13:25:40.394Z,61.55
2023-05-10T13:28:07.746Z,59.75
2023-05-10T13:30:34.857Z,59.72
2023-05-10T13:33:02.114Z,59.04
2023-05-10T13:35:29.262Z,58.76
2023-05-10T13:37:58.939Z,59.18
2023-05-10T13:40:25.935Z,58.30
2023-05-10T13:42:54.313Z,58.33
2023-05-10T13:45:21.495Z,59.84
2023-05-10T13:47:48.689Z,61.97
2023-05-10T13:50:15.912Z,63.25
2023-05-10T13:52:42.917Z,65.28
2023-05-10T13:55:10.311Z,63.99
2023-05-10T13:57:40.420Z,65.08
2023-05-10T14:00:09.158Z,66.55
2023-05-10T14:02:36.393Z,66.46
2023-05-10T14:05:04.712Z,65.78
2023-05-10T14:07:32.841Z,65.49
2023-05-10T14:09:59.878Z,64.04
2023-05-10T14:12:27.116Z,63.77
2023-05-10T14:14:54.321Z,63.48
2023-05-10T14:17:21.510Z,63.41
2023-05-10T14:19:48.655Z,62.66
2023-05-10T14:22:15.727Z,62.29
2023-05-10T14:24:42.729Z,61.57
2023-05-10T14:27:09.986Z,61.93
2023-05-10T14:29:39.443Z,60.65
2023-05-10T14:32:06.779Z,60.31
2023-05-10T14:34:34.241Z,61.28
2023-05-10T14:37:01.323Z,61.08
2023-05-10T14:39:31.939Z,60.06
2023-05-10T14:41:59.894Z,60.40
2023-05-10T14:44:27.693Z,61.50
2023-05-10T14:46:54.731Z,60.02
2023-05-10T14:49:24.131Z,59.28
2023-05-10T14:51:51.431Z,60.59
2023-05-10T14:54:18.516Z,59.96
2023-05-10T14:56:46.613Z,59.50
2023-05-10T14:59:16.741Z,60.34
2023-05-10T15:01:45.271Z,60.21
2023-05-10T15:04:14.582Z,60.49
2023-05-10T15:06:42.403Z,61.97
2023-05-10T15:09:10.256Z,63.11
2023-05-10T15:11:43.034Z,63.49
2023-05-10T15:14:10.020Z,64.52
2023-05-10T15:16:37.242Z,64.69
2023-05-10T15:19:04.369Z,63.80
2023-05-10T15:21:40.030Z,59.32
2023-05-10T15:24:07.555Z,58.35
2023-05-10T15:26:34.948Z,58.70
2023-05-10T15:29:02.134Z,58.29
2023-05-10T15:31:29.582Z,57.81
2023-05-10T15:34:01.336Z,60.10
2023-05-10T15:36:29.295Z,61.64
2023-05-10T15:38:57.320Z,63.60
2023-05-10T15:41:25.237Z,61.73
2023-05-10T15:43:53.091Z,60.47
2023-05-10T15:46:21.105Z,60.17
2023-05-10T15:48:49.334Z,60.07
2023-05-10T15:51:17.096Z,59.46
2023-05-10T15:54:05.254Z,58.62
2023-05-10T15:56:35.147Z,59.61
2023-05-10T15:59:03.225Z,59.58
2023-05-10T16:01:32.882Z,59.60
2023-05-10T16:04:02.462Z,60.44
2023-05-10T16:06:30.125Z,61.01
2023-05-10T16:08:58.070Z,61.55
2023-05-10T16:11:25.703Z,61.54
2023-05-10T16:13:53.227Z,61.78
2023-05-10T16:16:20.964Z,61.82
2023-05-10T16:18:48.954Z,61.65
2023-05-10T16:21:17.252Z,61.70
2023-05-10T16:23:46.997Z,63.21
2023-05-10T16:26:15.631Z,62.26
2023-05-10T16:28:43.348Z,61.56
2023-05-10T16:31:12.209Z,59.32
2023-05-10T16:33:40.213Z,59.13
2023-05-10T16:36:07.964Z,59.34
2023-05-10T16:38:35.832Z,60.67
2023-05-10T16:41:04.469Z,60.68
2023-05-10T16:43:33.570Z,61.59
2023-05-10T16:46:01.638Z,62.29
2023-05-10T16:48:29.995Z,63.44
2023-05-10T16:50:58.551Z,64.33
2023-05-10T16:53:27.063Z,64.36
2023-05-10T16:55:55.072Z,63.52
2023-05-10T16:58:23.175Z,62.56
2023-05-10T17:00:51.621Z,63.72
2023-05-10T17:03:19.753Z,63.17
2023-05-10T17:05:47.965Z,65.09
2023-05-10T17:08:15.558Z,65.51
2023-05-10T17:10:44.189Z,65.99
2023-05-10T17:13:11.815Z,66.61
2023-05-10T17:15:40.194Z,66.60
2023-05-10T17:18:08.200Z,66.02
2023-05-10T17:20:35.972Z,68.41
2023-05-10T17:23:03.875Z,68.09
2023-05-10T17:25:31.590Z,67.83
2023-05-10T17:27:59.137Z,70.90
2023-05-10T17:30:28.071Z,70.83
2023-05-10T17:32:55.785Z,72.31
2023-05-10T17:35:23.638Z,73.51
2023-05-10T17:37:51.309Z,75.61
2023-05-10T17:40:19.172Z,75.80
2023-05-10T17:42:46.772Z,76.58
2023-05-10T17:45:14.936Z,77.42
2023-05-10T17:47:42.815Z,77.49
2023-05-10T17:50:11.232Z,78.28
2023-05-10T17:52:38.628Z,80.78
2023-05-10T17:55:06.754Z,80.81
2023-05-10T17:57:34.480Z,81.22
2023-05-10T18:00:04.326Z,81.59
2023-05-10T18:02:34.303Z,81.56
2023-05-10T18:05:02.109Z,79.79
2023-05-10T18:07:30.990Z,80.07
2023-05-10T18:09:58.862Z,80.73
2023-05-10T18:12:26.647Z,79.73
2023-05-10T18:14:54.285Z,80.11
2023-05-10T18:17:21.703Z,79.26
2023-05-10T18:19:49.017Z,78.50
2023-05-10T18:22:16.463Z,78.68
2023-05-10T18:24:44.140Z,78.86
2023-05-10T18:27:11.792Z,78.46
2023-05-10T18:29:39.798Z,76.81
2023-05-10T18:32:07.288Z,78.06
2023-05-10T18:34:34.779Z,75.94
2023-05-10T18:37:08.099Z,75.67
2023-05-10T18:39:36.663Z,76.45
2023-05-10T18:42:05.460Z,76.30
2023-05-10T18:44:32.899Z,77.49
2023-05-10T18:47:00.078Z,77.06
2023-05-10T18:49:28.404Z,80.12
2023-05-10T18:51:55.661Z,79.71
2023-05-10T18:54:23.127Z,78.41
2023-05-10T18:56:50.599Z,78.60
2023-05-10T18:59:18.024Z,79.56
2023-05-10T19:01:45.524Z,80.41
2023-05-10T19:04:12.913Z,80.27
2023-05-10T19:06:42.030Z,81.46
2023-05-10T19:09:10.065Z,81.44
2023-05-10T19:11:37.395Z,80.68
2023-05-10T19:14:06.253Z,80.75
2023-05-10T19:16:36.148Z,81.90
2023-05-10T19:19:08.166Z,81.08
2023-05-10T19:21:36.225Z,80.82
2023-05-10T19:24:04.102Z,81.25
2023-05-10T19:26:31.797Z,81.53
2023-05-10T19:28:59.193Z,80.92
2023-05-10T19:31:26.438Z,81.48
2023-05-10T19:33:54.398Z,81.71
2023-05-10T19:36:21.841Z,82.08
2023-05-10T19:38:49.462Z,82.70
2023-05-10T19:41:16.732Z,82.91
2023-05-10T19:43:43.942Z,82.59
2023-05-10T19:46:11.144Z,82.86
2023-05-10T19:48:39.143Z,82.78
2023-05-10T19:51:10.002Z,82.88
2023-05-10T19:53:37.576Z,82.79
2023-05-10T19:56:06.648Z,81.65
2023-05-10T19:58:34.135Z,80.44
2023-05-10T20:01:01.792Z,80.12
2023-05-10T20:03:29.439Z,80.18
2023-05-10T20:05:56.631Z,80.08
2023-05-10T20:08:23.813Z,78.23
2023-05-10T20:10:51.010Z,77.09
2023-05-10T20:13:18.211Z,76.94
2023-05-10T20:15:46.481Z,76.38
2023-05-10T20:18:13.905Z,75.44
2023-05-10T20:20:41.953Z,74.65
2023-05-10T20:23:09.184Z,73.29
2023-05-10T20:25:36.902Z,73.23
2023-05-10T20:28:04.257Z,74.22
2023-05-10T20:30:31.487Z,75.92
2023-05-10T20:32:59.026Z,76.56
2023-05-10T20:35:26.992Z,77.58
2023-05-10T20:37:54.650Z,79.68
2023-05-10T20:40:21.933Z,80.98
2023-05-10T20:42:49.969Z,81.68
2023-05-10T20:45:17.193Z,82.22
2023-05-10T20:47:44.472Z,82.74
2023-05-10T20:50:12.140Z,81.49
2023-05-10T20:52:39.270Z,81.18
2023-05-10T20:55:07.550Z,80.32
2023-05-10T20:57:34.724Z,80.25
2023-05-10T21:00:01.933Z,80.10
2023-05-10T21:02:29.295Z,80.41
2023-05-10T21:04:58.236Z,80.79
2023-05-10T21:07:25.853Z,80.13
2023-05-10T21:09:53.111Z,79.89
2023-05-10T21:12:20.183Z,79.40
2023-05-10T21:14:48.182Z,80.66
2023-05-10T21:17:15.887Z,81.11
2023-05-10T21:19:43.852Z,79.47
2023-05-10T21:22:11.589Z,80.62
2023-05-10T21:24:38.909Z,80.07
2023-05-10T21:27:07.786Z,80.06
2023-05-10T21:29:35.492Z,80.16
2023-05-10T21:32:02.818Z,80.59
2023-05-10T21:34:30.297Z,79.95
2023-05-10T21:36:57.516Z,79.92
2023-05-10T21:39:24.654Z,79.89
2023-05-10T21:41:51.835Z,80.41
2023-05-10T21:44:19.147Z,80.24
2023-05-10T21:46:46.429Z,80.34
2023-05-10T21:49:13.718Z,80.36
2023-05-10T21:51:41.112Z,80.67
2023-05-10T21:54:08.178Z,81.09
2023-05-10T21:56:35.485Z,80.44
2023-05-10T21:59:02.661Z,80.24
2023-05-10T22:01:30.003Z,80.85
2023-05-10T22:03:57.291Z,80.60
2023-05-10T22:06:24.502Z,80.89
2023-05-10T22:08:51.857Z,81.14
2023-05-10T22:11:19.076Z,81.20
2023-05-10T22:13:49.360Z,80.50
2023-05-10T22:16:16.455Z,80.62
2023-05-10T22:18:44.270Z,80.25
2023-05-10T22:21:11.481Z,79.61
2023-05-10T22:23:38.666Z,80.37
2023-05-10T22:26:06.150Z,81.16
2023-05-10T22:28:33.304Z,80.78
2023-05-10T22:31:00.939Z,79.71
2023-05-10T22:33:28.268Z,79.05
2023-05-10T22:35:55.576Z,79.06
2023-05-10T22:38:22.933Z,78.13
2023-05-10T22:40:50.147Z,79.75
2023-05-10T22:43:17.912Z,79.35
2023-05-10T22:45:45.037Z,79.00
2023-05-10T22:48:12.271Z,79.23
2023-05-10T22:50:39.566Z,79.25
2023-05-10T22:53:07.021Z,79.62
2023-05-10T22:55:34.288Z,80.54
2023-05-10T22:58:01.432Z,80.59
2023-05-10T23:00:28.529Z,79.79
2023-05-10T23:02:55.715Z,79.46
2023-05-10T23:05:22.767Z,79.05
2023-05-10T23:07:53.536Z,78.65
2023-05-10T23:10:20.976Z,78.69
2023-05-10T23:12:48.413Z,79.14
2023-05-10T23:15:15.652Z,78.40
2023-05-10T23:17:42.789Z,77.94
2023-05-10T23:20:10.931Z,78.17
2023-05-10T23:22:38.104Z,78.34
2023-05-10T23:25:05.825Z,77.84
2023-05-10T23:27:33.067Z,77.65
2023-05-10T23:30:00.315Z,76.83
2023-05-10T23:32:27.454Z,76.69
2023-05-10T23:34:54.708Z,76.82
2023-05-10T23:37:22.000Z,76.49
2023-05-10T23:39:49.119Z,76.72
2023-05-10T23:42:16.176Z,77.82
2023-05-10T23:44:43.281Z,77.90
2023-05-10T23:47:10.393Z,77.46
2023-05-10T23:49:38.299Z,78.35
2023-05-10T23:52:05.377Z,78.35
2023-05-10T23:54:32.387Z,78.33
2023-05-10T23:56:59.469Z,78.74
2023-05-10T23:59:26.548Z,79.17
